LIRE

Pratica Di Mare Airport

Pomezia, Italy
TAF LIRE 261100Z 2612/2621 27010KT 9999 FEW030
Issued Valid From Valid To
Apr-26 @ 11:00 UTC
(2 hours ago)
Apr-26 @ 12:00 UTC
(an hour ago)
Apr-26 @ 21:00 UTC
(in 8 hours)
Apr-26 @ 12:00 to Apr-26 @ 21:00
TAF LIRE 261100Z 2612/2621 27010KT 9999 FEW030
Wind Visibility Clouds
270° at 10 knots 10,000+ meters
  • Few at 3,000' AGL
TAF LIRE 261100Z 2612/2621 27010KT 9999 FEW030
Issued Apr-26 @ 11:00 UTC
(2 hours ago)
Valid From Apr-26 @ 12:00 UTC
(an hour ago)
Valid To Apr-26 @ 21:00 UTC
(in 8 hours)
Apr-26 @ 12:00 - Apr-26 @ 21:00
Wind Visibility
270° at 10 knots 10,000+ meters
Clouds
  • Few at 3,000' AGL